Time;durP1;ratioP1;P1;durP2;ratioP2;P2;SDS_P1;SDS_P2;PMS_P1;PMS_P2;Temp;Humidity;BMP_temperature;BMP_pressure;BME280_temperature;BME280_humidity;BME280_pressure;Samples;Min_cycle;Max_cycle;Signal;HPM_P1;HPM_P2
2021/05/20 00:02:12;;;;;;;3.22;2.00;;;11.80;99.90;;;;;;3536245;40;20023;-68
2021/05/20 00:04:38;;;;;;;3.78;1.80;;;11.40;99.90;;;;;;3535923;40;20053;-68
2021/05/20 00:07:04;;;;;;;9.65;1.70;;;11.40;99.90;;;;;;3533597;40;20031;-67
2021/05/20 00:09:30;;;;;;;2.33;1.73;;;11.40;99.90;;;;;;3532681;40;20046;-68
2021/05/20 00:11:56;;;;;;;1.92;1.65;;;11.20;99.90;;;;;;3534434;40;20039;-68
2021/05/20 00:14:22;;;;;;;5.18;1.98;;;13.80;99.90;;;;;;3534670;40;20039;-68
2021/05/20 00:16:48;;;;;;;3.70;1.60;;;11.40;99.90;;;;;;3537669;40;20055;-68
2021/05/20 00:19:15;;;;;;;2.13;1.60;;;11.30;99.90;;;;;;3537683;40;20121;-67
2021/05/20 00:21:40;;;;;;;2.78;2.00;;;11.30;99.90;;;;;;3533000;40;20096;-67
2021/05/20 00:24:07;;;;;;;3.58;2.20;;;11.40;99.90;;;;;;3537321;40;20042;-68
2021/05/20 00:26:33;;;;;;;2.90;1.70;;;10.80;99.90;;;;;;3536549;40;20030;-68
2021/05/20 00:28:59;;;;;;;4.50;2.05;;;11.70;99.90;;;;;;3536666;40;20035;-68
2021/05/20 00:31:25;;;;;;;2.30;1.70;;;11.10;99.90;;;;;;3534069;40;20027;-68
2021/05/20 00:33:51;;;;;;;2.28;1.80;;;12.80;99.90;;;;;;3538861;40;20401;-68
2021/05/20 00:36:17;;;;;;;4.25;1.80;;;11.40;99.90;;;;;;3539849;40;20069;-68
2021/05/20 00:38:43;;;;;;;3.42;1.67;;;;;;;;;;3537825;40;20041;-68
2021/05/20 00:41:08;;;;;;;4.82;1.85;;;11.40;99.90;;;;;;3536986;40;20423;-69
2021/05/20 00:43:34;;;;;;;2.20;1.75;;;11.40;99.90;;;;;;3538862;40;20079;-68
2021/05/20 00:46:00;;;;;;;3.67;1.90;;;11.50;99.90;;;;;;3540413;40;20042;-68
2021/05/20 00:48:26;;;;;;;2.72;1.70;;;11.80;99.90;;;;;;3540689;40;20030;-68
2021/05/20 00:50:52;;;;;;;4.88;2.38;;;11.10;99.90;;;;;;3536128;40;20043;-68
2021/05/20 00:53:17;;;;;;;2.33;1.88;;;11.30;99.90;;;;;;3536897;40;20077;-68
2021/05/20 00:55:43;;;;;;;2.33;1.88;;;11.00;99.90;;;;;;3539258;40;20869;-68
2021/05/20 00:58:11;;;;;;;2.67;1.80;;;11.70;99.90;;;;;;3540157;40;20030;-68
2021/05/20 01:00:37;;;;;;;1.80;1.50;;;11.40;99.90;;;;;;3538813;40;20057;-68
2021/05/20 01:03:03;;;;;;;2.83;1.83;;;11.30;99.90;;;;;;3533816;40;20035;-68
2021/05/20 01:05:29;;;;;;;4.72;1.92;;;11.20;99.90;;;;;;3536168;40;20806;-68
2021/05/20 01:07:55;;;;;;;2.78;1.73;;;11.30;99.90;;;;;;3536611;40;20337;-68
2021/05/20 01:10:21;;;;;;;2.08;1.80;;;11.20;99.90;;;;;;3532234;40;20053;-68
2021/05/20 01:12:47;;;;;;;2.83;1.60;;;11.30;99.90;;;;;;3532243;40;20109;-68
2021/05/20 01:15:24;;;;;;;2.72;1.85;;;9.60;99.90;;;;;;3533785;40;20335;-68
2021/05/20 01:17:55;;;;;;;4.40;1.73;;;11.00;99.90;;;;;;3536427;40;20063;-68
2021/05/20 01:20:26;;;;;;;2.47;1.70;;;11.10;99.90;;;;;;3538592;40;20043;-68
2021/05/20 01:22:52;;;;;;;3.45;1.52;;;11.10;99.90;;;;;;3540234;40;20059;-68
2021/05/20 01:25:18;;;;;;;1.85;1.60;;;11.10;99.90;;;;;;3540019;40;20042;-68
2021/05/20 01:27:45;;;;;;;3.00;1.70;;;10.90;99.90;;;;;;3538703;40;20157;-68
2021/05/20 01:30:12;;;;;;;1.75;1.50;;;10.70;99.90;;;;;;3536804;40;20057;-68
2021/05/20 01:32:38;;;;;;;3.38;1.75;;;;;;;;;;3537425;40;20042;-68
2021/05/20 01:35:05;;;;;;;2.53;1.55;;;10.80;99.90;;;;;;3541675;40;20043;-68
2021/05/20 01:37:31;;;;;;;2.78;1.70;;;11.50;99.90;;;;;;3542257;40;20030;-68
2021/05/20 01:39:57;;;;;;;2.90;1.48;;;11.30;99.90;;;;;;3537056;40;20100;-68
2021/05/20 01:42:23;;;;;;;3.10;1.60;;;10.80;99.90;;;;;;3540673;40;20043;-68
2021/05/20 01:44:49;;;;;;;2.75;1.70;;;10.70;99.90;;;;;;3539064;40;20704;-68
2021/05/20 01:47:14;;;;;;;1.85;1.60;;;10.80;99.90;;;;;;3535943;40;20037;-68
2021/05/20 01:49:40;;;;;;;2.70;1.58;;;;;;;;;;3533518;40;20512;-68
2021/05/20 01:52:06;;;;;;;1.90;1.60;;;10.80;99.90;;;;;;3538594;40;20098;-68
2021/05/20 01:54:32;;;;;;;2.67;1.60;;;10.80;99.90;;;;;;3537084;40;20128;-68
2021/05/20 01:56:58;;;;;;;2.30;1.70;;;10.80;99.90;;;;;;3536454;40;20050;-68
2021/05/20 01:59:23;;;;;;;2.33;1.60;;;10.80;99.90;;;;;;3540565;40;20041;-68
2021/05/20 02:01:49;;;;;;;3.88;1.80;;;10.20;99.90;;;;;;3541480;40;20031;-68
2021/05/20 02:04:15;;;;;;;2.15;1.77;;;;;;;;;;3540667;40;20045;-68
2021/05/20 02:06:41;;;;;;;2.33;1.45;;;11.10;99.90;;;;;;3538059;40;20039;-68
2021/05/20 02:09:07;;;;;;;2.20;1.75;;;10.70;99.90;;;;;;3536915;40;20428;-68
2021/05/20 02:11:33;;;;;;;3.17;2.10;;;10.30;99.90;;;;;;3535954;40;20447;-68
2021/05/20 02:13:59;;;;;;;2.28;1.98;;;;;;;;;;3540003;40;20046;-68
2021/05/20 02:16:25;;;;;;;4.90;1.90;;;;;;;;;;3538428;40;20043;-68
2021/05/20 02:18:51;;;;;;;2.40;2.10;;;;;;;;;;3537191;40;20068;-68
2021/05/20 02:21:17;;;;;;;7.68;2.85;;;11.00;99.90;;;;;;3535725;40;20050;-68
2021/05/20 02:23:42;;;;;;;3.28;2.20;;;9.10;99.90;;;;;;3541306;40;20039;-68
2021/05/20 02:26:09;;;;;;;4.50;2.58;;;10.80;99.90;;;;;;3536030;40;20721;-68
2021/05/20 02:28:35;;;;;;;3.67;2.20;;;10.80;99.90;;;;;;3535771;40;20045;-68
2021/05/20 02:31:01;;;;;;;4.60;2.80;;;11.30;99.90;;;;;;3534303;40;20046;-68
2021/05/20 02:33:27;;;;;;;5.60;2.65;;;10.80;99.90;;;;;;3536359;40;20396;-68
2021/05/20 02:35:52;;;;;;;4.93;2.70;;;10.60;99.90;;;;;;3537999;40;20084;-68
2021/05/20 02:38:18;;;;;;;4.80;3.10;;;10.80;99.90;;;;;;3539599;40;20791;-68
2021/05/20 02:40:44;;;;;;;6.80;3.33;;;10.50;99.90;;;;;;3537079;40;20054;-67
2021/05/20 02:43:09;;;;;;;4.43;3.25;;;11.70;99.90;;;;;;3538852;40;20034;-68
2021/05/20 02:45:35;;;;;;;5.22;3.13;;;11.10;99.90;;;;;;3537608;40;20140;-68
2021/05/20 02:48:01;;;;;;;5.85;3.17;;;;;;;;;;3534760;40;20047;-68
2021/05/20 02:50:27;;;;;;;6.00;3.35;;;11.00;99.90;;;;;;3541789;40;20031;-68
2021/05/20 02:52:53;;;;;;;6.35;3.45;;;11.00;99.90;;;;;;3536908;40;20532;-68
2021/05/20 02:55:21;;;;;;;3.40;3.00;;;11.00;99.90;;;;;;3534983;40;20043;-68
2021/05/20 02:57:50;;;;;;;5.22;3.22;;;10.40;99.90;;;;;;3537800;40;20054;-68
2021/05/20 03:00:20;;;;;;;7.35;3.17;;;;;;;;;;3539604;40;20396;-68
2021/05/20 03:02:49;;;;;;;7.93;2.92;;;10.80;99.90;;;;;;3540162;40;20038;-68
2021/05/20 03:05:16;;;;;;;6.15;3.88;;;11.70;99.90;;;;;;3541560;40;20039;-68
2021/05/20 03:07:42;;;;;;;3.70;3.20;;;11.60;99.90;;;;;;3536847;40;20109;-68
2021/05/20 03:10:08;;;;;;;7.18;4.20;;;10.90;99.90;;;;;;3535487;40;20744;-68
2021/05/20 03:12:34;;;;;;;5.00;3.72;;;11.00;99.90;;;;;;3536677;40;20065;-68
2021/05/20 03:15:00;;;;;;;4.60;3.45;;;10.90;99.90;;;;;;3537270;40;20046;-68
2021/05/20 03:17:26;;;;;;;4.95;3.47;;;10.90;99.90;;;;;;3536166;40;20046;-68
2021/05/20 03:19:52;;;;;;;4.85;3.63;;;10.90;99.90;;;;;;3539763;40;20050;-68
2021/05/20 03:22:18;;;;;;;7.15;3.78;;;10.90;99.90;;;;;;3537325;40;20133;-68
2021/05/20 03:24:44;;;;;;;4.13;3.33;;;10.90;99.90;;;;;;3535931;40;20043;-69
2021/05/20 03:27:10;;;;;;;5.57;4.03;;;10.80;99.90;;;;;;3532231;40;20074;-68
2021/05/20 03:29:36;;;;;;;5.10;3.65;;;10.80;99.90;;;;;;3534749;40;20567;-68
2021/05/20 03:32:02;;;;;;;5.10;3.75;;;10.80;99.90;;;;;;3535234;40;20141;-68
2021/05/20 03:34:28;;;;;;;12.60;3.88;;;10.90;99.90;;;;;;3537945;40;20039;-68
2021/05/20 03:36:53;;;;;;;7.38;3.80;;;10.90;99.90;;;;;;3538191;40;20049;-68
2021/05/20 03:39:19;;;;;;;4.93;3.75;;;10.90;99.90;;;;;;3538941;40;20046;-68
2021/05/20 03:41:45;;;;;;;5.43;3.65;;;10.80;99.90;;;;;;3538393;40;20069;-69
2021/05/20 03:44:10;;;;;;;8.27;3.60;;;10.90;99.90;;;;;;3537577;40;20046;-69
2021/05/20 03:46:36;;;;;;;4.97;3.70;;;10.90;99.90;;;;;;3536417;40;20047;-68
2021/05/20 03:49:03;;;;;;;5.88;3.58;;;11.30;99.90;;;;;;3537395;40;20046;-68
2021/05/20 03:51:29;;;;;;;4.97;4.00;;;10.80;99.90;;;;;;3538842;40;20496;-68
2021/05/20 03:53:55;;;;;;;7.63;3.97;;;10.90;99.90;;;;;;3540854;40;20071;-69
2021/05/20 03:56:21;;;;;;;6.88;4.20;;;;;;;;;;3534105;40;20038;-68
2021/05/20 03:58:47;;;;;;;12.07;3.30;;;11.60;99.90;;;;;;3536355;40;20035;-68
2021/05/20 04:01:13;;;;;;;4.70;3.75;;;;;;;;;;3534629;40;20058;-68
2021/05/20 04:03:39;;;;;;;5.20;3.83;;;;;;;;;;3535469;40;20031;-68
2021/05/20 04:06:05;;;;;;;5.43;3.72;;;;;;;;;;3536107;40;20035;-68
2021/05/20 04:08:37;;;;;;;5.20;3.90;;;11.30;99.90;;;;;;3534863;40;20681;-68
2021/05/20 04:11:03;;;;;;;5.68;4.00;;;11.10;99.90;;;;;;3538399;40;20041;-68
2021/05/20 04:13:30;;;;;;;6.10;4.35;;;11.30;99.90;;;;;;3534844;40;20104;-67
2021/05/20 04:15:56;;;;;;;5.32;3.90;;;11.10;99.90;;;;;;3534664;40;20356;-68
2021/05/20 04:18:22;;;;;;;7.30;5.20;;;11.10;99.90;;;;;;3537350;40;20031;-68
2021/05/20 04:20:49;;;;;;;8.25;5.25;;;11.00;99.90;;;;;;3540528;40;20062;-67
2021/05/20 04:23:15;;;;;;;8.77;5.30;;;;;;;;;;3535016;40;20042;-67
2021/05/20 04:25:42;;;;;;;5.88;4.13;;;11.10;99.90;;;;;;3537133;40;20129;-69
2021/05/20 04:28:09;;;;;;;9.55;5.03;;;;;;;;;;3539218;40;20456;-67
2021/05/20 04:30:35;;;;;;;7.90;4.60;;;11.40;99.90;;;;;;3539217;40;20157;-67
2021/05/20 04:33:02;;;;;;;8.05;5.30;;;10.30;99.90;;;;;;3539344;40;20042;-67
2021/05/20 04:35:27;;;;;;;12.95;5.32;;;11.20;99.90;;;;;;3535879;40;20045;-67
2021/05/20 04:37:53;;;;;;;8.43;5.38;;;11.10;99.90;;;;;;3536141;40;20432;-69
2021/05/20 04:40:19;;;;;;;8.45;5.60;;;11.10;99.90;;;;;;3538611;40;20030;-68
2021/05/20 04:42:45;;;;;;;5.88;4.95;;;11.40;99.90;;;;;;3537324;40;20148;-68
2021/05/20 04:45:11;;;;;;;6.55;5.03;;;11.20;99.90;;;;;;3533335;40;20030;-68
2021/05/20 04:47:37;;;;;;;12.40;8.05;;;11.20;99.90;;;;;;3534635;40;20059;-68
2021/05/20 04:50:03;;;;;;;11.63;5.53;;;11.70;99.90;;;;;;3536485;40;20990;-67
2021/05/20 04:52:30;;;;;;;10.93;5.57;;;;;;;;;;3536409;40;20050;-68
2021/05/20 04:54:55;;;;;;;7.00;5.10;;;11.00;99.90;;;;;;3534763;40;20038;-66
2021/05/20 04:57:21;;;;;;;9.35;5.22;;;11.30;99.90;;;;;;3537970;40;20513;-68
2021/05/20 04:59:47;;;;;;;12.48;6.28;;;11.30;99.90;;;;;;3537874;40;20039;-68
2021/05/20 05:02:12;;;;;;;8.85;6.45;;;11.40;99.90;;;;;;3534708;40;20034;-67
2021/05/20 05:04:38;;;;;;;9.40;6.15;;;11.60;99.90;;;;;;3536093;40;20035;-67
2021/05/20 05:07:03;;;;;;;8.50;5.82;;;11.20;99.90;;;;;;3532860;40;20027;-66
2021/05/20 05:09:29;;;;;;;9.65;6.07;;;11.40;99.90;;;;;;3531126;40;20055;-67
2021/05/20 05:11:55;;;;;;;7.72;5.90;;;11.40;99.90;;;;;;3536469;40;20030;-67
2021/05/20 05:14:21;;;;;;;8.10;6.15;;;11.40;99.90;;;;;;3537226;40;20050;-68
2021/05/20 05:16:46;;;;;;;9.73;6.28;;;11.50;99.90;;;;;;3533163;40;20058;-67
2021/05/20 05:19:12;;;;;;;11.18;6.88;;;11.60;99.90;;;;;;3537862;40;20050;-67
2021/05/20 05:21:38;;;;;;;9.73;5.65;;;;;;;;;;3540062;40;20042;-68
2021/05/20 05:24:05;;;;;;;7.82;6.20;;;12.00;99.90;;;;;;3538565;40;20531;-67
2021/05/20 05:26:31;;;;;;;7.40;5.90;;;;;;;;;;3537689;40;20074;-68
2021/05/20 05:28:57;;;;;;;9.63;5.75;;;11.90;99.90;;;;;;3537248;40;20328;-67
2021/05/20 05:31:25;;;;;;;9.20;6.80;;;11.90;99.90;;;;;;3537270;40;20035;-68
2021/05/20 05:33:51;;;;;;;7.95;5.93;;;12.00;99.90;;;;;;3535124;40;20870;-60
2021/05/20 05:36:17;;;;;;;8.60;5.90;;;12.00;99.90;;;;;;3536032;40;20141;-60
2021/05/20 05:38:43;;;;;;;8.15;6.05;;;12.10;99.90;;;;;;3537107;40;20436;-60
2021/05/20 05:41:08;;;;;;;11.23;6.22;;;12.10;99.90;;;;;;3536438;40;20031;-60
2021/05/20 05:43:34;;;;;;;10.48;6.22;;;12.20;99.90;;;;;;3537914;40;20030;-60
2021/05/20 05:46:00;;;;;;;9.98;5.53;;;13.60;99.90;;;;;;3534772;40;20119;-60
2021/05/20 05:48:25;;;;;;;8.57;6.13;;;12.30;99.90;;;;;;3539580;40;20039;-60
2021/05/20 05:50:53;;;;;;;9.75;5.88;;;12.20;99.90;;;;;;3537658;40;20666;-60
2021/05/20 05:53:20;;;;;;;11.52;6.03;;;;;;;;;;3536281;40;20636;-60
2021/05/20 05:55:46;;;;;;;9.27;6.53;;;;;;;;;;3535403;40;20050;-68
2021/05/20 05:58:11;;;;;;;10.07;5.80;;;12.50;99.90;;;;;;3535785;40;20038;-68
2021/05/20 06:00:38;;;;;;;11.32;5.95;;;12.30;99.90;;;;;;3535675;40;20591;-68
2021/05/20 06:03:04;;;;;;;12.55;6.65;;;12.60;99.90;;;;;;3536311;40;20034;-68
2021/05/20 06:05:30;;;;;;;8.70;5.28;;;12.80;99.90;;;;;;3536688;40;20045;-68
2021/05/20 06:07:56;;;;;;;13.32;5.97;;;13.20;99.90;;;;;;3536500;40;20055;-68
2021/05/20 06:10:23;;;;;;;10.25;5.70;;;13.40;99.90;;;;;;3532871;40;20630;-67
2021/05/20 06:12:49;;;;;;;6.97;5.10;;;13.40;99.90;;;;;;3533390;40;20046;-68
2021/05/20 06:15:15;;;;;;;7.35;5.30;;;13.50;99.90;;;;;;3531720;40;20417;-68
2021/05/20 06:17:41;;;;;;;7.40;5.30;;;13.50;99.90;;;;;;3535155;40;20034;-68
2021/05/20 06:20:08;;;;;;;7.78;5.75;;;13.40;99.90;;;;;;3537493;40;20066;-68
2021/05/20 06:22:34;;;;;;;7.20;5.30;;;13.40;99.90;;;;;;3533931;40;20038;-68
2021/05/20 06:25:00;;;;;;;5.38;4.53;;;13.30;99.90;;;;;;3538388;40;20460;-69
2021/05/20 06:27:26;;;;;;;8.00;5.30;;;13.40;99.90;;;;;;3536709;40;20049;-68
2021/05/20 06:29:56;;;;;;;8.63;5.25;;;13.30;99.90;;;;;;3535662;40;20165;-68
2021/05/20 06:32:22;;;;;;;8.30;5.25;;;13.40;99.90;;;;;;3536901;40;20050;-69
2021/05/20 06:34:48;;;;;;;7.60;4.85;;;13.60;99.90;;;;;;3538699;40;20022;-68
2021/05/20 06:37:13;;;;;;;8.32;5.60;;;13.60;99.90;;;;;;3534977;40;20136;-68
2021/05/20 06:39:40;;;;;;;9.18;5.00;;;14.00;99.90;;;;;;3539999;40;20033;-67
2021/05/20 06:42:08;;;;;;;10.98;5.10;;;14.50;99.90;;;;;;3537869;40;20776;-68
2021/05/20 06:44:35;;;;;;;11.75;5.22;;;14.00;99.90;;;;;;3538386;40;20437;-68
2021/05/20 06:47:01;;;;;;;9.55;4.97;;;13.80;99.90;;;;;;3536163;40;20031;-68
2021/05/20 06:49:26;;;;;;;10.23;5.22;;;13.70;99.90;;;;;;3537301;40;20049;-68
2021/05/20 06:51:52;;;;;;;5.85;4.72;;;13.50;99.90;;;;;;3540026;40;20500;-67
2021/05/20 06:54:18;;;;;;;11.98;5.15;;;13.60;99.90;;;;;;3536290;40;20103;-69
2021/05/20 06:56:48;;;;;;;7.90;4.60;;;13.70;99.90;;;;;;3535082;40;20167;-69
2021/05/20 07:01:58;;;;;;;5.30;3.40;;;13.90;99.90;;;;;;3541816;40;20140;-68
2021/05/20 07:04:23;;;;;;;6.50;3.50;;;14.00;99.90;;;;;;3535590;40;20061;-69
2021/05/20 07:06:49;;;;;;;5.18;3.15;;;13.80;99.90;;;;;;3535747;40;20490;-68
2021/05/20 07:09:15;;;;;;;9.57;3.88;;;13.80;99.90;;;;;;3537508;40;20088;-69
2021/05/20 07:11:41;;;;;;;6.55;3.20;;;14.00;99.90;;;;;;3535906;40;20038;-67
2021/05/20 07:14:07;;;;;;;3.78;2.65;;;14.00;99.90;;;;;;3534591;40;20108;-68
2021/05/20 07:16:33;;;;;;;7.88;2.58;;;;;;;;;;3537625;40;20046;-68
2021/05/20 07:18:59;;;;;;;9.38;2.97;;;13.90;99.90;;;;;;3537844;40;20409;-67
2021/05/20 07:21:25;;;;;;;4.38;2.67;;;;;;;;;;3537266;40;20046;-68
2021/05/20 07:23:51;;;;;;;4.55;2.70;;;;;;;;;;3536476;40;20121;-68
2021/05/20 07:26:17;;;;;;;7.38;2.60;;;14.30;99.90;;;;;;3536782;40;20038;-68
2021/05/20 07:28:43;;;;;;;5.28;2.60;;;12.80;99.90;;;;;;3540125;40;20046;-68
2021/05/20 07:31:09;;;;;;;3.30;2.10;;;14.20;99.90;;;;;;3535966;40;20031;-68
2021/05/20 07:33:35;;;;;;;4.90;1.92;;;14.20;99.90;;;;;;3537177;40;20047;-68
2021/05/20 07:36:01;;;;;;;3.17;1.42;;;14.30;99.90;;;;;;3534747;40;20051;-68
2021/05/20 07:38:27;;;;;;;6.15;1.80;;;14.40;99.90;;;;;;3532920;40;20039;-68
2021/05/20 07:40:53;;;;;;;2.03;1.40;;;14.30;99.90;;;;;;3536436;40;20035;-68
2021/05/20 07:43:20;;;;;;;3.22;1.67;;;14.40;99.90;;;;;;3534278;40;20037;-68
2021/05/20 07:45:48;;;;;;;4.93;1.58;;;14.60;99.90;;;;;;3535459;40;20046;-67
2021/05/20 07:48:14;;;;;;;2.50;1.67;;;14.70;99.90;;;;;;3537075;40;20100;-68
2021/05/20 07:50:40;;;;;;;6.20;1.85;;;15.40;99.90;;;;;;3538036;40;20058;-68
2021/05/20 07:53:05;;;;;;;5.07;1.60;;;15.10;99.90;;;;;;3535027;40;20038;-67
2021/05/20 07:55:31;;;;;;;3.75;1.80;;;15.50;99.90;;;;;;3534677;40;20042;-68
2021/05/20 07:57:58;;;;;;;2.65;1.52;;;15.70;99.90;;;;;;3537524;40;20042;-68
2021/05/20 08:00:24;;;;;;;3.95;1.80;;;15.70;99.90;;;;;;3537996;40;20031;-69
2021/05/20 08:02:55;;;;;;;4.45;1.80;;;15.80;99.90;;;;;;3540048;40;20760;-69
2021/05/20 08:05:29;;;;;;;3.97;1.80;;;15.70;99.90;;;;;;3540447;40;20065;-68
2021/05/20 08:10:40;;;;;;;4.15;1.42;;;15.60;99.90;;;;;;3538405;40;20569;-68
2021/05/20 08:13:07;;;;;;;6.93;2.08;;;15.90;99.90;;;;;;3539270;40;20054;-69
2021/05/20 08:15:32;;;;;;;5.15;1.48;;;16.20;99.50;;;;;;3534838;40;20114;-68
2021/05/20 08:17:58;;;;;;;4.72;1.98;;;16.50;99.70;;;;;;3539600;40;20047;-68
2021/05/20 08:20:24;;;;;;;5.78;2.15;;;16.80;98.20;;;;;;3540479;40;20169;-68
2021/05/20 08:22:50;;;;;;;5.20;1.80;;;16.80;98.30;;;;;;3537799;40;20779;-68
2021/05/20 08:25:15;;;;;;;2.95;1.63;;;17.40;96.90;;;;;;3537060;40;20035;-69
2021/05/20 08:27:41;;;;;;;3.67;1.35;;;17.30;97.00;;;;;;3538720;40;20038;-68
2021/05/20 08:30:08;;;;;;;3.30;1.75;;;17.80;98.30;;;;;;3536277;40;20622;-68
2021/05/20 08:32:34;;;;;;;4.70;1.90;;;17.80;96.00;;;;;;3532296;40;20039;-68
2021/05/20 08:35:00;;;;;;;2.85;1.50;;;;;;;;;;3537035;40;20038;-68
2021/05/20 08:37:26;;;;;;;4.15;1.67;;;;;;;;;;3536138;40;20864;-68
2021/05/20 08:39:52;;;;;;;5.82;1.90;;;18.10;99.90;;;;;;3533655;40;20639;-68
2021/05/20 08:42:18;;;;;;;3.88;1.83;;;;;;;;;;3534107;40;20036;-68
2021/05/20 08:44:44;;;;;;;5.85;2.33;;;;;;;;;;3539407;40;20055;-68
2021/05/20 08:47:11;;;;;;;4.53;2.03;;;17.40;96.40;;;;;;3537516;40;20036;-68
2021/05/20 08:49:37;;;;;;;3.78;1.88;;;;;;;;;;3536801;40;20036;-69
2021/05/20 08:52:03;;;;;;;3.95;1.90;;;17.40;99.60;;;;;;3536501;40;20039;-68
2021/05/20 08:54:29;;;;;;;5.43;2.20;;;17.50;94.80;;;;;;3536547;40;20037;-69
2021/05/20 08:56:55;;;;;;;3.65;1.80;;;17.50;95.60;;;;;;3533692;40;20042;-69
2021/05/20 08:59:22;;;;;;;13.13;6.82;;;17.30;99.60;;;;;;3539429;40;20393;-68
2021/05/20 09:01:51;;;;;;;4.22;1.63;;;17.40;95.40;;;;;;3537880;40;20043;-69
2021/05/20 09:04:17;;;;;;;5.07;1.83;;;;;;;;;;3538080;40;20136;-68
2021/05/20 09:06:51;;;;;;;2.67;1.40;;;17.00;95.80;;;;;;3539667;40;20054;-68
2021/05/20 09:09:24;;;;;;;2.50;1.40;;;18.60;97.40;;;;;;3538687;40;20034;-68
2021/05/20 09:11:52;;;;;;;2.05;1.30;;;17.80;93.80;;;;;;3538049;40;20459;-68
2021/05/20 09:14:30;;;;;;;2.30;1.40;;;;;;;;;;3535630;40;20062;-69
2021/05/20 09:17:21;;;;;;;1.70;1.23;;;18.70;93.80;;;;;;3537128;40;20102;-68
2021/05/20 09:20:00;;;;;;;6.03;1.42;;;17.60;92.50;;;;;;3531959;40;20420;-68
2021/05/20 09:22:27;;;;;;;4.18;1.35;;;18.70;94.00;;;;;;3539088;40;20035;-68
2021/05/20 09:25:00;;;;;;;4.75;1.30;;;18.70;91.10;;;;;;3536006;40;20624;-68
2021/05/20 09:27:37;;;;;;;4.07;1.15;;;18.80;90.90;;;;;;3538107;40;20415;-68
2021/05/20 09:30:15;;;;;;;5.15;1.33;;;;;;;;;;3535133;40;20071;-68
2021/05/20 09:32:56;;;;;;;5.40;1.38;;;19.50;89.30;;;;;;3535662;40;20039;-68
2021/05/20 09:35:34;;;;;;;1.33;1.08;;;19.10;92.80;;;;;;3535247;40;20648;-68
2021/05/20 09:38:06;;;;;;;4.32;0.90;;;19.00;89.90;;;;;;3538364;40;20305;-68
2021/05/20 09:40:36;;;;;;;3.60;0.82;;;19.60;89.50;;;;;;3535068;40;20393;-68
2021/05/20 09:43:16;;;;;;;1.58;1.05;;;20.80;86.50;;;;;;3538899;40;20350;-68
2021/05/20 09:45:42;;;;;;;2.42;0.90;;;;;;;;;;3538784;40;20430;-68
2021/05/20 09:48:08;;;;;;;4.20;1.30;;;19.40;80.20;;;;;;3532169;40;20042;-68
2021/05/20 09:50:45;;;;;;;1.95;0.93;;;19.10;84.60;;;;;;3534689;40;20039;-68
2021/05/20 09:53:17;;;;;;;2.97;1.30;;;18.80;84.00;;;;;;3536942;40;20038;-67
2021/05/20 09:55:45;;;;;;;4.80;0.93;;;18.40;84.80;;;;;;3536349;40;20043;-68
2021/05/20 09:58:12;;;;;;;3.40;1.10;;;;;;;;;;3540225;40;20050;-68
2021/05/20 10:00:39;;;;;;;2.03;1.05;;;18.10;83.80;;;;;;3536935;40;20050;-67
2021/05/20 10:03:11;;;;;;;4.85;1.38;;;19.90;84.60;;;;;;3538825;40;20046;-68
2021/05/20 10:05:38;;;;;;;6.47;2.95;;;18.00;80.50;;;;;;3537847;40;20093;-67
2021/05/20 10:08:06;;;;;;;1.98;1.02;;;19.70;76.90;;;;;;3533162;40;20060;-68
2021/05/20 10:10:34;;;;;;;2.20;0.82;;;;;;;;;;3538597;40;20137;-68
2021/05/20 10:13:02;;;;;;;1.65;1.10;;;;;;;;;;3538408;40;20090;-68
2021/05/20 10:15:28;;;;;;;1.63;1.10;;;19.70;84.50;;;;;;3536112;40;20680;-68
2021/05/20 10:17:54;;;;;;;1.58;1.30;;;;;;;;;;3538403;40;20125;-68
2021/05/20 10:20:21;;;;;;;5.55;1.30;;;18.60;82.40;;;;;;3537875;40;20023;-68
2021/05/20 10:22:49;;;;;;;3.50;1.15;;;18.60;80.60;;;;;;3538659;40;20137;-68
2021/05/20 10:25:18;;;;;;;3.00;1.05;;;18.80;85.00;;;;;;3540337;40;20046;-68
2021/05/20 10:27:44;;;;;;;13.65;1.55;;;19.00;80.70;;;;;;3537548;40;20585;-68
2021/05/20 10:30:13;;;;;;;1.90;1.20;;;19.50;81.70;;;;;;3535203;40;20043;-67
2021/05/20 10:32:40;;;;;;;2.33;1.13;;;;;;;;;;3537740;40;20062;-69
2021/05/20 10:35:13;;;;;;;5.05;1.00;;;;;;;;;;3532446;40;20053;-68
2021/05/20 10:37:40;;;;;;;1.90;1.20;;;;;;;;;;3536646;40;20038;-69
2021/05/20 10:40:24;;;;;;;2.85;1.25;;;20.40;75.40;;;;;;3535903;40;20045;-68
2021/05/20 10:43:07;;;;;;;6.97;2.80;;;20.40;80.60;;;;;;3536207;40;20120;-69
2021/05/20 10:45:34;;;;;;;2.40;1.13;;;20.50;75.40;;;;;;3539935;40;20042;-69
2021/05/20 10:48:03;;;;;;;4.05;1.15;;;20.10;75.80;;;;;;3538411;40;20038;-69
2021/05/20 10:50:48;;;;;;;3.30;1.10;;;;;;;;;;3539243;40;20117;-72
2021/05/20 10:53:33;;;;;;;3.40;1.88;;;;;;;;;;3537055;40;20117;-72
2021/05/20 10:55:59;;;;;;;6.10;1.90;;;;;;;;;;3534457;40;20122;-73
2021/05/20 10:58:29;;;;;;;1.10;1.00;;;;;;;;;;3540713;40;20412;-73
2021/05/20 11:00:55;;;;;;;4.03;1.70;;;;;;;;;;3538079;40;20050;-72
2021/05/20 11:03:41;;;;;;;3.50;1.35;;;;;;;;;;3537452;40;20046;-73
2021/05/20 11:06:07;;;;;;;5.45;1.30;;;;;;;;;;3539499;40;20054;-72
2021/05/20 11:08:36;;;;;;;4.05;1.02;;;;;;;;;;3533735;40;20075;-72
2021/05/20 11:11:03;;;;;;;1.10;0.93;;;;;;;;;;3536468;40;20055;-73
2021/05/20 11:13:36;;;;;;;3.67;1.48;;;;;;;;;;3536371;40;20042;-73
2021/05/20 11:16:18;;;;;;;2.08;1.20;;;;;;;;;;3537095;40;20045;-73
2021/05/20 11:18:49;;;;;;;3.08;0.90;;;;;;;;;;3539392;40;20061;-72
2021/05/20 11:21:16;;;;;;;2.67;1.00;;;;;;;;;;3536063;40;20035;-72
2021/05/20 11:23:41;;;;;;;1.83;1.20;;;21.50;63.10;;;;;;3535544;40;20094;-72
2021/05/20 11:26:17;;;;;;;1.33;1.10;;;21.40;70.00;;;;;;3541380;40;20038;-73
2021/05/20 11:28:42;;;;;;;3.35;1.02;;;21.40;68.60;;;;;;3538810;40;20081;-70
2021/05/20 11:31:09;;;;;;;4.32;0.80;;;21.60;73.40;;;;;;3536938;40;20074;-71
2021/05/20 11:33:49;;;;;;;2.08;1.00;;;21.50;62.00;;;;;;3539752;40;20042;-72
2021/05/20 11:36:15;;;;;;;1.88;1.00;;;20.50;64.00;;;;;;3535613;40;20035;-72
2021/05/20 11:38:52;;;;;;;3.25;0.65;;;21.00;64.20;;;;;;3541570;40;20034;-73
2021/05/20 11:41:18;;;;;;;2.80;1.58;;;;;;;;;;3539479;40;20034;-72
2021/05/20 11:43:45;;;;;;;2.72;1.00;;;20.30;65.00;;;;;;3537547;40;20035;-73
2021/05/20 11:46:38;;;;;;;1.73;0.90;;;21.20;59.70;;;;;;3536382;40;20034;-72
2021/05/20 11:49:23;;;;;;;4.10;0.90;;;;;;;;;;3536321;40;20094;-72
2021/05/20 11:51:49;;;;;;;7.00;0.90;;;;;;;;;;3542278;40;20388;-71
2021/05/20 11:54:16;;;;;;;1.23;0.57;;;23.10;56.00;;;;;;3534952;40;20039;-71
2021/05/20 11:56:45;;;;;;;1.83;0.60;;;21.00;56.00;;;;;;3537141;40;20030;-71
2021/05/20 11:59:12;;;;;;;2.38;0.60;;;23.30;57.20;;;;;;3540917;40;20121;-71
2021/05/20 12:01:40;;;;;;;1.75;0.70;;;24.00;54.10;;;;;;3539751;40;20050;-72
2021/05/20 12:04:07;;;;;;;1.55;0.55;;;23.40;56.80;;;;;;3541313;40;20041;-71
2021/05/20 12:06:33;;;;;;;0.82;0.50;;;24.00;51.00;;;;;;3538257;40;20050;-72
2021/05/20 12:09:06;;;;;;;2.45;0.70;;;;;;;;;;3538111;40;20030;-71
2021/05/20 12:11:32;;;;;;;1.95;0.50;;;;;;;;;;3534874;40;20038;-72
2021/05/20 12:13:58;;;;;;;1.63;0.50;;;24.80;49.60;;;;;;3530868;40;20049;-71
2021/05/20 12:16:31;;;;;;;1.73;0.60;;;23.60;49.40;;;;;;3531301;40;20043;-72
2021/05/20 12:18:58;;;;;;;2.13;0.70;;;23.80;53.80;;;;;;3540758;40;20771;-66
2021/05/20 12:21:24;;;;;;;3.80;0.63;;;24.50;49.90;;;;;;3537187;40;20030;-66
2021/05/20 12:23:57;;;;;;;1.42;0.52;;;23.20;48.00;;;;;;3538684;40;20045;-67
2021/05/20 12:26:29;;;;;;;6.43;3.10;;;22.00;51.60;;;;;;3541290;40;20043;-67
2021/05/20 12:28:56;;;;;;;0.55;0.40;;;21.80;54.00;;;;;;3541902;40;20051;-67
2021/05/20 12:31:22;;;;;;;2.55;1.08;;;20.90;57.90;;;;;;3538216;40;20096;-68
2021/05/20 12:33:48;;;;;;;2.42;0.70;;;21.40;67.10;;;;;;3539371;40;20031;-68
2021/05/20 12:36:35;;;;;;;0.85;0.60;;;20.80;60.80;;;;;;3535767;40;20063;-69
2021/05/20 12:39:02;;;;;;;2.22;0.60;;;21.20;55.40;;;;;;3538897;40;20026;-68
2021/05/20 12:41:37;;;;;;;2.40;1.38;;;21.30;54.50;;;;;;3539227;40;20339;-68
2021/05/20 12:44:16;;;;;;;;;;;22.00;53.90;;;;;;3540011;40;20507;-69
2021/05/20 12:46:42;;;;;;;1.88;0.88;;;;;;;;;;3537914;40;20286;-68
2021/05/20 12:49:08;;;;;;;1.98;0.60;;;23.10;53.90;;;;;;3536536;40;20640;-68
2021/05/20 12:51:34;;;;;;;0.60;0.52;;;23.10;53.30;;;;;;3533228;40;20055;-68
2021/05/20 12:54:07;;;;;;;0.90;0.50;;;24.00;53.80;;;;;;3532185;40;20132;-66
2021/05/20 12:56:33;;;;;;;4.63;0.68;;;23.50;53.40;;;;;;3534307;40;20055;-66
2021/05/20 12:59:04;;;;;;;1.50;0.60;;;;;;;;;;3538099;40;20031;-66
2021/05/20 13:01:44;;;;;;;3.75;0.60;;;23.00;49.90;;;;;;3537212;40;20045;-65
2021/05/20 13:04:12;;;;;;;1.38;0.68;;;21.10;54.60;;;;;;3541259;40;20853;-67
2021/05/20 13:06:38;;;;;;;2.05;0.68;;;21.80;55.20;;;;;;3541091;40;20042;-68
2021/05/20 13:09:09;;;;;;;2.03;0.80;;;21.40;56.50;;;;;;3539980;40;20043;-68
2021/05/20 13:11:39;;;;;;;5.03;0.68;;;21.90;56.20;;;;;;3536192;40;20061;-68
2021/05/20 13:17:12;;;;;;;1.55;0.75;;;23.60;51.50;;;;;;3535280;40;20128;-68